Bay City Municipal Airport


Codes: KBYY/BBC
Name: Bay City Municipal Airport
City: Bay City
Country: United States
Elevation: 45 ft.
Wikipedia:

Photos at Bay City Municipal Airport


   Photos courtesy of SpottingLog. You can add your own sightings and photos by signing up for a free trial today.



No photos found.

Weather at Bay City Municipal Airport


Time (UTC)DescriptionTempratureWindCloud coverageVisibilityPressureHumidity
13-Jun-2024 03:00Light Rain27°C4 mph, SE0%10000m1013hPa89%
13-Jun-2024 06:00Clear Sky27°C4 mph, SE1%10000m1013hPa87%
13-Jun-2024 09:00Clear Sky26°C4 mph, SE0%10000m1012hPa85%
13-Jun-2024 12:00Clear Sky25°C2 mph, E0%10000m1012hPa83%
13-Jun-2024 15:00Light Rain31°C7 mph, E0%10000m1013hPa59%
13-Jun-2024 18:00Light Rain33°C9 mph, SE25%10000m1012hPa46%
13-Jun-2024 21:00Overcast Clouds31°C4 mph, SE100%10000m1012hPa56%
14-Jun-2024 00:00Broken Clouds31°C11 mph, SE82%10000m1012hPa52%
14-Jun-2024 03:00Clear Sky26°C7 mph, SE1%10000m1013hPa78%
14-Jun-2024 06:00Clear Sky25°C4 mph, SE1%10000m1013hPa81%
14-Jun-2024 09:00Clear Sky24°C2 mph, E0%10000m1012hPa86%
14-Jun-2024 12:00Clear Sky24°C4 mph, NE0%10000m1013hPa86%
14-Jun-2024 15:00Clear Sky31°C7 mph, E0%10000m1014hPa57%
14-Jun-2024 18:00Clear Sky36°C13 mph, SE10%10000m1013hPa40%
14-Jun-2024 21:00Few Clouds35°C18 mph, SE17%10000m1011hPa41%
15-Jun-2024 00:00Clear Sky32°C13 mph, SE8%10000m1011hPa50%
15-Jun-2024 03:00Clear Sky25°C7 mph, SE0%10000m1012hPa86%
15-Jun-2024 06:00Clear Sky25°C7 mph, SE0%10000m1013hPa85%
15-Jun-2024 09:00Clear Sky24°C4 mph, E0%10000m1012hPa86%
15-Jun-2024 12:00Clear Sky25°C4 mph, E0%10000m1012hPa84%
15-Jun-2024 15:00Clear Sky32°C9 mph, SE0%10000m1013hPa54%
15-Jun-2024 18:00Clear Sky35°C13 mph, SE0%10000m1012hPa42%
15-Jun-2024 21:00Clear Sky34°C16 mph, SE1%10000m1011hPa45%
16-Jun-2024 00:00Clear Sky30°C13 mph, SE0%10000m1011hPa60%
16-Jun-2024 03:00Clear Sky27°C9 mph, SE4%10000m1011hPa82%
16-Jun-2024 06:00Light Rain26°C9 mph, SE2%10000m1012hPa85%
16-Jun-2024 09:00Clear Sky26°C7 mph, SE0%10000m1011hPa88%
16-Jun-2024 12:00Clear Sky26°C7 mph, SE1%10000m1011hPa86%
16-Jun-2024 15:00Light Rain31°C13 mph, SE21%10000m1012hPa64%
16-Jun-2024 18:00Light Rain32°C16 mph, SE33%10000m1012hPa61%
16-Jun-2024 21:00Light Rain32°C18 mph, SE47%10000m1011hPa58%
17-Jun-2024 00:00Light Rain29°C16 mph, SE48%10000m1011hPa67%
17-Jun-2024 03:00Light Rain27°C13 mph, SE13%10000m1012hPa74%
17-Jun-2024 06:00Clear Sky27°C13 mph, SE7%10000m1012hPa70%
17-Jun-2024 09:00Clear Sky27°C11 mph, SE3%10000m1011hPa69%
17-Jun-2024 12:00Clear Sky27°C9 mph, SE0%10000m1011hPa69%
17-Jun-2024 15:00Clear Sky32°C16 mph, SE2%10000m1012hPa52%
17-Jun-2024 18:00Light Rain34°C18 mph, SE6%10000m1012hPa45%
17-Jun-2024 21:00Scattered Clouds33°C18 mph, SE37%10000m1011hPa48%
18-Jun-2024 00:00Light Rain28°C18 mph, SE41%10000m1012hPa65%